Time;durP1;ratioP1;P1;durP2;ratioP2;P2;SDS_P1;SDS_P2;PMS_P1;PMS_P2;Temp;Humidity;BMP_temperature;BMP_pressure;BME280_temperature;BME280_humidity;BME280_pressure;Samples;Min_cycle;Max_cycle;Signal;HPM_P1;HPM_P2
2022/01/12 00:00:15;;;;;;;;;67.00;52.25;;;;;4.53;65.41;103205.69;4977624;28;45421;-69
2022/01/12 00:02:40;;;;;;;;;66.50;51.75;;;;;4.47;65.81;103200.59;4960971;28;45470;-67
2022/01/12 00:05:06;;;;;;;;;70.50;51.00;;;;;4.35;65.61;103179.88;4960803;28;45511;-69
2022/01/12 00:07:32;;;;;;;;;67.50;50.75;;;;;4.25;65.58;103167.88;4977728;28;45494;-68
2022/01/12 00:09:57;;;;;;;;;66.25;49.75;;;;;4.33;65.81;103184.31;4978289;28;45346;-71
2022/01/12 00:12:22;;;;;;;;;70.25;52.00;;;;;4.32;65.70;103179.97;4978656;28;45576;-68
2022/01/12 00:14:48;;;;;;;;;60.50;47.00;;;;;4.30;65.90;103188.81;4978063;28;45552;-67
2022/01/12 00:17:13;;;;;;;;;71.75;51.25;;;;;4.29;66.41;103172.16;4960043;28;45961;-69
2022/01/12 00:19:39;;;;;;;;;61.75;50.00;;;;;4.30;65.78;103187.03;4959702;28;46243;-69
2022/01/12 00:22:04;;;;;;;;;63.50;48.75;;;;;4.22;66.23;103163.56;4977542;28;45259;-67
2022/01/12 00:24:51;;;;;;;;;65.75;49.75;;;;;4.28;66.64;103178.34;4978163;28;45508;-70
2022/01/12 00:35:27;;;;;;;;;69.25;52.75;;;;;4.28;66.98;103186.22;4978020;28;45528;-67
2022/01/12 00:37:52;;;;;;;;;69.50;54.50;;;;;4.33;66.56;103192.22;4977600;28;46493;-68
2022/01/12 00:40:17;;;;;;;;;71.00;53.75;;;;;4.35;66.40;103192.19;4977090;28;45212;-67
2022/01/12 00:42:43;;;;;;;;;67.00;51.50;;;;;4.28;66.59;103178.34;4977049;28;45217;-67
2022/01/12 00:45:09;;;;;;;;;66.75;51.25;;;;;4.22;66.83;103173.25;4960058;28;45240;-69
2022/01/12 00:47:34;;;;;;;;;67.50;53.00;;;;;4.23;66.66;103186.38;4977593;28;46131;-67
2022/01/12 00:49:59;;;;;;;;;73.25;53.50;;;;;4.25;66.67;103196.84;4976841;28;45509;-70
2022/01/12 00:52:25;;;;;;;;;69.75;52.25;;;;;4.26;66.26;103202.06;4978456;28;45537;-69
2022/01/12 00:54:50;;;;;;;;;70.00;54.00;;;;;3.81;66.70;103113.88;4980947;28;45444;-67
2022/01/12 00:57:16;;;;;;;;;72.75;53.50;;;;;4.16;67.13;103176.91;4962820;28;47908;-68
2022/01/12 00:59:41;;;;;;;;;64.50;49.00;;;;;3.74;66.78;103112.28;4980143;28;45363;-69
2022/01/12 01:02:06;;;;;;;;;72.25;52.25;;;;;4.24;66.67;103214.44;4980726;28;45245;-69
2022/01/12 01:04:32;;;;;;;;;73.50;55.50;;;;;4.29;66.75;103216.91;4980807;28;45316;-69
2022/01/12 01:06:57;;;;;;;;;67.25;53.25;;;;;4.25;67.43;103207.38;4980312;28;45534;-68
2022/01/12 01:09:23;;;;;;;;;68.00;52.25;;;;;4.37;67.37;103228.09;4979959;28;45592;-68
2022/01/12 01:11:49;;;;;;;;;71.75;55.00;;;;;4.10;66.78;103198.13;4980595;28;45361;-69
2022/01/12 01:14:22;;;;;;;;;63.25;51.00;;;;;4.21;66.77;103208.38;4979148;28;45533;-69
2022/01/12 01:25:29;;;;;;;;;71.75;53.50;;;;;4.37;66.50;103233.34;4979941;28;45998;-68
2022/01/12 01:27:44;;;;;;;;;75.00;55.00;;;;;3.90;67.88;103251.31;4980113;28;45240;-67
2022/01/12 01:30:10;;;;;;;;;66.75;51.50;;;;;3.89;68.33;103246.94;4980119;28;45339;-68
2022/01/12 01:32:36;;;;;;;;;65.00;50.75;;;;;3.86;68.11;103244.41;4978850;28;45340;-70
2022/01/12 01:35:01;;;;;;;;;68.50;53.50;;;;;3.73;68.03;103227.19;4980892;28;45522;-67
2022/01/12 01:37:26;;;;;;;;;69.50;53.25;;;;;3.80;68.22;103244.53;4980001;28;46619;-67
2022/01/12 01:39:52;;;;;;;;;68.75;52.50;;;;;3.96;68.65;103276.59;4979810;28;45557;-68
2022/01/12 01:42:23;;;;;;;;;61.00;49.50;;;;;3.86;68.41;103270.72;4980153;28;45440;-67
2022/01/12 01:55:28;;;;;;;;;63.25;48.50;;;;;3.93;68.31;103271.41;4979729;28;45453;-66
2022/01/12 01:57:54;;;;;;;;;65.25;49.75;;;;;3.91;68.52;103268.81;4979308;28;46249;-69
2022/01/12 02:00:23;;;;;;;;;58.25;43.00;;;;;3.85;68.63;103257.59;4974553;28;45405;-67
2022/01/12 02:02:50;;;;;;;;;63.25;45.75;;;;;3.90;68.62;103259.22;4958681;28;45351;-67
2022/01/12 02:05:16;;;;;;;;;57.75;47.00;;;;;3.71;68.51;103223.75;4959361;28;45505;-66
2022/01/12 02:07:42;;;;;;;;;68.00;52.50;;;;;3.54;68.65;103210.16;4960032;28;45743;-67
2022/01/12 02:10:08;;;;;;;;;235.50;193.75;;;;;3.86;68.79;103254.06;4975548;28;45410;-67
2022/01/12 02:12:34;;;;;;;;;73.00;55.00;;;;;3.82;68.66;103249.78;4979688;28;45533;-69
2022/01/12 02:15:03;;;;;;;;;64.50;51.00;;;;;3.88;68.48;103247.00;4979531;28;45236;-67
2022/01/12 02:17:35;;;;;;;;;59.25;46.50;;;;;3.95;68.61;103254.69;4979264;28;46692;-66
2022/01/12 02:36:20;;;;;;;;;62.75;46.50;;;;;3.62;69.87;103252.94;4969410;28;45393;-68
2022/01/12 02:41:31;;;;;;;;;65.00;48.25;;;;;3.66;69.74;103233.53;4978444;28;45289;-67
2022/01/12 02:54:49;;;;;;;;;68.00;52.00;;;;;3.90;68.92;103227.63;4978900;28;45323;-67
2022/01/12 02:57:14;;;;;;;;;60.50;49.75;;;;;3.95;69.14;103220.47;4978866;28;45423;-68
2022/01/12 02:59:56;;;;;;;;;59.00;46.75;;;;;3.92;68.45;103212.66;4978550;28;46042;-66
2022/01/12 03:02:29;;;;;;;;;72.25;55.25;;;;;3.43;68.96;103139.44;4978274;28;45262;-68
2022/01/12 03:05:30;;;;;;;;;67.00;51.25;;;;;3.78;69.71;103222.66;4978675;28;45323;-69
2022/01/12 03:08:01;;;;;;;;;59.75;44.00;;;;;3.73;69.97;103227.19;4979294;28;45320;-68
2022/01/12 03:10:27;;;;;;;;;58.00;48.50;;;;;3.61;69.44;103209.09;4978105;28;46582;-66
2022/01/12 03:12:52;;;;;;;;;57.25;41.50;;;;;3.35;69.75;103178.19;4960566;28;45594;-67
2022/01/12 03:15:18;;;;;;;;;73.50;53.75;;;;;3.04;70.54;103109.75;4978372;28;45392;-66
2022/01/12 03:17:43;;;;;;;;;66.75;51.75;;;;;3.93;69.36;103247.72;4978569;28;45232;-68
2022/01/12 03:20:09;;;;;;;;;62.50;45.50;;;;;3.92;69.22;103244.25;4978210;28;45462;-68
2022/01/12 03:22:35;;;;;;;;;67.00;48.50;;;;;4.02;69.66;103250.13;4978114;28;45433;-69
2022/01/12 03:25:01;;;;;;;;;74.00;52.50;;;;;4.16;69.31;103263.78;4978399;28;45342;-69
2022/01/12 03:27:28;;;;;;;;;71.25;52.50;;;;;4.12;68.11;103266.53;4978596;28;45294;-69
2022/01/12 03:29:56;;;;;;;;;73.25;52.75;;;;;3.86;69.41;103257.56;4960630;28;45848;-67
2022/01/12 03:32:39;;;;;;;;;63.75;43.75;;;;;3.51;70.27;103221.63;4978036;28;45357;-67
2022/01/12 03:35:22;;;;;;;;;65.25;50.00;;;;;3.64;70.00;103251.13;4978582;28;45310;-67
2022/01/12 03:38:32;;;;;;;;;63.00;47.25;;;;;3.78;69.52;103259.50;4978662;28;45326;-68
2022/01/12 03:40:33;;;;;;;;;65.50;49.00;;;;;3.76;70.08;103268.34;4970376;28;46060;-68
2022/01/12 03:42:58;;;;;;;;;71.75;51.75;;;;;3.86;69.97;103270.72;4960153;28;45239;-68
2022/01/12 03:45:23;;;;;;;;;69.50;52.75;;;;;3.89;69.99;103252.22;4978477;28;45355;-67
2022/01/12 03:47:49;;;;;;;;;62.75;46.75;;;;;3.97;69.42;103252.88;4979141;28;45350;-67
2022/01/12 03:50:14;;;;;;;;;63.00;50.25;;;;;3.93;69.33;103256.50;4960405;28;45860;-67
2022/01/12 03:52:40;;;;;;;;;64.50;47.00;;;;;3.78;69.72;103245.50;4977753;28;45573;-68
2022/01/12 03:55:06;;;;;;;;;63.50;49.50;;;;;3.86;69.18;103268.09;4977979;28;45958;-68
2022/01/12 03:57:31;;;;;;;;;57.50;47.25;;;;;3.87;69.83;103269.81;4978090;28;45336;-67
2022/01/12 03:59:56;;;;;;;;;61.00;47.50;;;;;4.03;69.93;103283.47;4978036;28;46078;-66
2022/01/12 04:02:23;;;;;;;;;53.00;43.25;;;;;3.95;68.59;103265.22;4978993;28;45350;-67
2022/01/12 04:10:16;;;;;;;;;61.50;48.25;;;;;3.87;69.30;103272.44;4977548;28;45272;-67
2022/01/12 04:12:42;;;;;;;;;63.50;45.75;;;;;4.07;70.10;103310.56;4977466;28;45320;-66
2022/01/12 04:15:07;;;;;;;;;64.00;49.50;;;;;4.06;68.87;103287.78;4977482;28;45347;-69
2022/01/12 04:17:32;;;;;;;;;60.75;49.00;;;;;4.27;68.58;103318.81;4960118;28;45326;-67
2022/01/12 04:20:00;;;;;;;;;64.25;45.00;;;;;4.30;68.42;103323.97;4959971;28;46253;-68
2022/01/12 04:25:10;;;;;;;;;56.50;41.50;;;;;4.26;67.97;103330.25;4978068;28;45255;-66
2022/01/12 04:27:37;;;;;;;;;61.25;46.75;;;;;4.03;68.39;103295.75;4977383;28;45298;-70
2022/01/12 04:30:04;;;;;;;;;55.00;44.50;;;;;4.29;67.72;103327.53;4977247;28;45356;-68
2022/01/12 04:32:30;;;;;;;;;57.25;44.25;;;;;4.30;68.08;103323.13;4976848;28;45397;-68
2022/01/12 04:34:55;;;;;;;;;59.00;46.50;;;;;4.19;67.96;103304.94;4977699;28;45251;-67
2022/01/12 04:37:21;;;;;;;;;68.00;48.75;;;;;4.29;68.31;103332.78;4977501;28;45228;-69
2022/01/12 04:39:46;;;;;;;;;58.75;47.75;;;;;4.25;67.90;103317.97;4976961;28;46432;-66
2022/01/12 04:42:12;;;;;;;;;58.50;44.25;;;;;4.34;68.31;103336.16;4977249;28;45206;-68
2022/01/12 04:44:43;;;;;;;;;61.75;47.00;;;;;4.18;68.01;103321.66;4977232;28;45369;-68
2022/01/12 04:47:15;;;;;;;;;59.50;48.25;;;;;4.18;68.53;103333.06;4959926;28;45656;-68
2022/01/12 04:52:12;;;;;;;;;60.00;43.50;;;;;3.95;69.24;103338.91;4976727;28;45216;-68
2022/01/12 04:54:37;;;;;;;;;63.50;49.50;;;;;3.96;69.73;103340.63;4959453;28;45333;-69
2022/01/12 04:57:03;;;;;;;;;57.25;44.50;;;;;4.04;68.49;103342.22;4977485;28;45367;-66
2022/01/12 04:59:30;;;;;;;;;54.00;42.50;;;;;4.13;69.30;103336.72;4977656;28;46769;-67
2022/01/12 05:02:09;;;;;;;;;58.25;44.50;;;;;4.15;69.07;103319.09;4977024;28;45331;-69
2022/01/12 05:12:50;;;;;;;;;57.75;45.25;;;;;4.03;69.42;103356.28;4976686;28;45363;-67
2022/01/12 05:15:24;;;;;;;;;57.25;46.75;;;;;3.91;70.12;103350.41;4976981;28;45474;-68
2022/01/12 05:17:49;;;;;;;;;58.50;45.25;;;;;3.86;70.30;103357.56;4959233;28;45307;-67
2022/01/12 05:20:15;;;;;;;;;60.00;47.50;;;;;3.81;70.22;103359.44;4976597;28;45323;-68
2022/01/12 05:22:40;;;;;;;;;60.25;47.25;;;;;3.72;70.35;103345.63;4959003;28;45447;-69
2022/01/12 05:25:06;;;;;;;;;59.75;46.75;;;;;3.71;70.59;103365.81;4976944;28;45232;-66
2022/01/12 05:27:31;;;;;;;;;68.75;49.75;;;;;3.61;70.19;103341.50;4976697;28;45220;-66
2022/01/12 05:29:56;;;;;;;;;64.50;49.00;;;;;3.68;70.31;103360.63;4976369;28;45636;-70
2022/01/12 05:32:24;;;;;;;;;56.75;44.50;;;;;3.77;70.98;103343.75;4976886;28;45287;-67
2022/01/12 05:34:50;;;;;;;;;59.50;45.75;;;;;3.61;71.02;103291.53;4976875;28;45387;-68
2022/01/12 05:37:15;;;;;;;;;63.25;49.25;;;;;3.98;69.62;103338.81;4959189;28;45279;-67
2022/01/12 05:39:41;;;;;;;;;67.50;48.00;;;;;3.87;69.29;103313.69;4977723;28;45708;-67
2022/01/12 05:42:06;;;;;;;;;57.50;44.00;;;;;3.97;70.11;103326.56;4979566;28;45560;-67
2022/01/12 05:44:34;;;;;;;;;57.75;46.00;;;;;3.86;69.56;103323.34;4962393;28;45541;-68
2022/01/12 05:47:00;;;;;;;;;58.25;44.00;;;;;3.81;69.47;103346.28;4973021;28;45390;-68
2022/01/12 05:49:36;;;;;;;;;59.75;46.00;;;;;3.89;70.03;103341.69;4979923;28;45591;-67
2022/01/12 05:52:02;;;;;;;;;64.25;47.75;;;;;3.84;70.34;103340.09;4979996;28;45241;-67
2022/01/12 05:54:28;;;;;;;;;64.75;48.50;;;;;3.79;70.53;103332.28;4979699;28;45280;-68
2022/01/12 05:56:53;;;;;;;;;62.25;49.00;;;;;3.77;70.45;103335.84;4979368;28;45472;-69
2022/01/12 05:59:18;;;;;;;;;60.75;47.25;;;;;3.82;70.08;103345.38;4979312;28;45523;-69
2022/01/12 06:01:44;;;;;;;;;70.25;49.00;;;;;3.90;70.11;103351.31;4962068;28;45352;-69
2022/01/12 06:04:09;;;;;;;;;59.75;47.00;;;;;4.00;69.15;103362.47;4979360;28;45441;-68
2022/01/12 06:06:35;;;;;;;;;57.75;43.25;;;;;3.43;69.72;103254.28;4979800;28;45335;-68
2022/01/12 06:09:00;;;;;;;;;59.50;47.25;;;;;4.08;69.57;103378.97;4979713;28;45667;-67
2022/01/12 06:11:26;;;;;;;;;60.25;48.00;;;;;4.05;69.31;103357.13;4974614;28;45562;-68
2022/01/12 06:13:52;;;;;;;;;54.00;43.25;;;;;3.93;69.09;103330.19;4965608;28;45394;-68
2022/01/12 06:16:18;;;;;;;;;53.25;42.75;;;;;4.11;69.21;103349.91;4961474;28;45279;-70
2022/01/12 06:18:43;;;;;;;;;59.75;44.75;;;;;3.46;69.57;103252.44;4980312;28;45555;-67
2022/01/12 06:21:09;;;;;;;;;60.00;47.75;;;;;3.77;69.79;103318.28;4979881;28;45296;-69
2022/01/12 06:23:34;;;;;;;;;55.50;45.25;;;;;3.45;69.18;103257.72;4978977;28;45759;-68
2022/01/12 06:26:02;;;;;;;;;61.50;47.50;;;;;4.10;69.43;103347.31;4961282;28;45635;-68
2022/01/12 06:31:17;;;;;;;;;60.25;47.00;;;;;4.21;68.73;103359.34;4978606;28;45460;-68
2022/01/12 06:33:48;;;;;;;;;64.00;49.50;;;;;4.15;68.60;103335.78;4978616;28;45334;-70
2022/01/12 06:36:16;;;;;;;;;56.25;46.25;;;;;4.25;68.96;103353.06;4978921;28;45280;-69
2022/01/12 06:38:42;;;;;;;;;55.25;42.75;;;;;4.18;68.27;103363.78;4957811;28;47321;-69
2022/01/12 06:41:10;;;;;;;;;57.00;47.25;;;;;4.09;69.00;103361.41;4965243;28;45232;-69
2022/01/12 06:43:36;;;;;;;;;60.00;45.25;;;;;3.94;68.74;103358.22;4978699;28;45318;-70
2022/01/12 06:46:02;;;;;;;;;61.50;46.25;;;;;3.48;70.53;103273.44;4978748;28;45307;-68
2022/01/12 06:48:28;;;;;;;;;59.75;43.25;;;;;3.94;69.84;103352.97;4978448;28;46356;-68
2022/01/12 06:50:53;;;;;;;;;54.75;44.25;;;;;4.02;69.81;103362.47;4960768;28;45418;-67
2022/01/12 06:53:18;;;;;;;;;57.75;43.25;;;;;4.02;70.03;103360.69;4961314;28;45397;-72
2022/01/12 06:55:44;;;;;;;;;49.00;38.00;;;;;4.10;69.74;103373.66;4978102;28;45508;-68
2022/01/12 06:58:09;;;;;;;;;56.25;43.00;;;;;4.08;69.93;103375.47;4978722;28;45502;-68
2022/01/12 07:00:35;;;;;;;;;62.25;46.00;;;;;3.93;69.95;103355.63;4978880;28;45295;-70
2022/01/12 07:03:01;;;;;;;;;64.75;49.75;;;;;3.94;69.21;103347.69;4977540;28;45425;-70
2022/01/12 07:05:26;;;;;;;;;58.25;44.25;;;;;4.02;69.84;103349.31;4979004;28;45357;-72
2022/01/12 07:07:52;;;;;;;;;55.75;44.75;;;;;3.85;69.63;103324.25;4977636;28;45503;-69
2022/01/12 07:10:17;;;;;;;;;73.25;53.25;;;;;4.12;69.56;103377.97;4975926;28;45647;-67
2022/01/12 07:12:43;;;;;;;;;49.25;36.50;;;;;4.03;69.67;103370.31;4977416;28;45477;-69
2022/01/12 07:15:09;;;;;;;;;64.00;47.75;;;;;3.98;69.99;103359.88;4977649;28;45436;-74
2022/01/12 07:17:34;;;;;;;;;70.25;53.00;;;;;3.88;69.74;103355.75;4973024;28;47951;-69
2022/01/12 07:20:00;;;;;;;;;59.25;46.75;;;;;3.58;70.32;103306.47;4958806;28;45507;-72
2022/01/12 07:22:25;;;;;;;;;65.00;47.50;;;;;3.87;69.81;103351.41;4958989;28;45304;-69
2022/01/12 07:24:50;;;;;;;;;60.50;48.25;;;;;3.13;70.38;103204.13;4957528;28;45385;-67
2022/01/12 07:27:15;;;;;;;;;57.50;45.00;;;;;3.88;70.18;103328.56;4973559;28;46350;-67
2022/01/12 07:29:41;;;;;;;;;66.00;50.00;;;;;3.83;69.77;103325.19;4973849;28;45484;-68
2022/01/12 07:32:06;;;;;;;;;59.50;48.00;;;;;4.04;69.91;103361.53;4957151;28;45574;-67
2022/01/12 07:34:32;;;;;;;;;60.50;46.00;;;;;4.02;69.84;103365.09;4959252;28;45413;-69
2022/01/12 07:36:57;;;;;;;;;58.00;43.75;;;;;4.04;69.72;103368.56;4953377;28;49188;-67
2022/01/12 07:39:23;;;;;;;;;60.50;49.75;;;;;4.04;70.02;103373.81;4976255;28;45398;-68
2022/01/12 07:41:49;;;;;;;;;68.25;49.25;;;;;4.02;69.90;103375.63;4961800;28;45477;-72
2022/01/12 07:44:14;;;;;;;;;64.00;47.50;;;;;3.94;69.95;103366.13;4977550;28;45525;-68
2022/01/12 07:46:39;;;;;;;;;39.75;33.25;;;;;4.04;70.08;103384.34;4971691;28;45878;-69
2022/01/12 07:49:05;;;;;;;;;56.50;46.25;;;;;4.06;69.74;103407.09;4958215;28;45431;-68
2022/01/12 07:51:30;;;;;;;;;58.75;47.50;;;;;3.97;69.71;103388.88;4958603;28;45285;-70
2022/01/12 07:53:56;;;;;;;;;59.00;46.25;;;;;4.11;70.18;103425.41;4958972;28;45394;-69
2022/01/12 07:56:21;;;;;;;;;63.75;49.00;;;;;4.13;69.45;103420.97;4958556;28;45460;-68
2022/01/12 07:58:46;;;;;;;;;68.50;50.50;;;;;4.15;70.16;103427.06;4957981;28;45314;-68
2022/01/12 08:01:12;;;;;;;;;63.25;48.25;;;;;4.03;69.61;103406.31;4959228;28;45530;-69
2022/01/12 08:03:38;;;;;;;;;63.75;49.50;;;;;4.08;70.03;103423.72;4957010;28;45292;-71
2022/01/12 08:06:03;;;;;;;;;59.50;47.50;;;;;4.01;70.53;103394.94;4955016;28;46429;-71
2022/01/12 08:08:28;;;;;;;;;57.75;41.50;;;;;4.04;70.19;103400.13;4957476;28;45247;-70
2022/01/12 08:10:54;;;;;;;;;63.00;48.25;;;;;4.10;69.30;103402.63;4976307;28;45215;-67
2022/01/12 08:13:19;;;;;;;;;66.25;50.25;;;;;4.18;69.88;103424.34;4970989;28;45510;-69
2022/01/12 08:15:45;;;;;;;;;63.00;48.25;;;;;4.23;69.74;103427.75;4975216;28;47324;-68
2022/01/12 08:18:10;;;;;;;;;64.00;46.50;;;;;4.30;69.50;103434.59;4977681;28;45470;-68
2022/01/12 08:20:36;;;;;;;;;61.25;47.25;;;;;4.42;68.64;103452.72;4978554;28;45632;-69
2022/01/12 08:23:02;;;;;;;;;63.00;48.00;;;;;4.40;69.40;103440.47;4977532;28;45556;-70
2022/01/12 08:25:27;;;;;;;;;68.25;52.75;;;;;4.55;68.90;103459.41;4975925;28;45562;-69
2022/01/12 08:27:53;;;;;;;;;68.75;50.50;;;;;4.54;69.17;103469.97;4958282;28;45617;-70
2022/01/12 08:30:22;;;;;;;;;71.50;52.25;;;;;4.18;69.12;103427.84;4971995;28;45456;-74
2022/01/12 08:32:51;;;;;;;;;64.25;51.50;;;;;4.44;69.99;103457.97;4972701;28;45422;-68
2022/01/12 08:35:19;;;;;;;;;67.00;47.50;;;;;4.31;69.52;103431.06;4953164;28;47657;-72
2022/01/12 08:37:45;;;;;;;;;64.75;48.50;;;;;4.56;69.16;103479.56;4954688;28;45473;-67
2022/01/12 08:40:13;;;;;;;;;67.50;48.50;;;;;4.66;69.56;103471.47;4972998;28;45509;-70
2022/01/12 08:42:38;;;;;;;;;56.50;46.25;;;;;4.37;68.90;103466.91;4969504;28;45516;-71
2022/01/12 08:45:04;;;;;;;;;58.00;43.25;;;;;4.46;68.63;103478.09;4971204;28;45725;-70
2022/01/12 08:47:30;;;;;;;;;48.00;41.75;;;;;4.54;68.80;103494.56;4959340;28;45457;-68
2022/01/12 08:49:56;;;;;;;;;60.75;48.75;;;;;4.47;69.02;103477.19;4977058;28;45257;-68
2022/01/12 08:52:23;;;;;;;;;69.00;50.50;;;;;4.64;68.49;103496.97;4941749;28;45647;-70
2022/01/12 08:54:49;;;;;;;;;63.75;49.00;;;;;4.24;68.36;103409.28;4975184;28;46603;-71
2022/01/12 08:57:15;;;;;;;;;59.50;45.50;;;;;4.42;68.31;103431.66;4974922;28;45477;-68
2022/01/12 08:59:40;;;;;;;;;71.00;53.00;;;;;4.70;67.79;103479.25;4977016;28;45854;-68
2022/01/12 09:02:09;;;;;;;;;63.25;45.25;;;;;4.31;68.24;103414.38;4949930;28;45548;-69
2022/01/12 09:04:34;;;;;;;;;54.50;44.75;;;;;4.33;68.52;103428.38;4957387;28;46400;-71
2022/01/12 09:07:00;;;;;;;;;58.75;48.00;;;;;4.50;69.06;103474.47;4973559;28;45389;-69
2022/01/12 09:09:26;;;;;;;;;67.00;49.75;;;;;4.81;68.98;103508.84;4976013;28;45208;-69
2022/01/12 09:11:52;;;;;;;;;66.00;50.75;;;;;4.90;67.93;103510.34;4977619;28;45485;-71
2022/01/12 09:14:18;;;;;;;;;68.00;50.75;;;;;5.04;67.37;103518.78;4978880;28;45579;-68
2022/01/12 09:16:44;;;;;;;;;68.75;51.00;;;;;4.72;67.73;103450.22;4979780;28;45443;-69
2022/01/12 09:19:10;;;;;;;;;67.25;50.50;;;;;5.21;66.93;103517.47;4979818;28;45364;-69
2022/01/12 09:21:36;;;;;;;;;59.75;45.75;;;;;5.41;66.22;103517.78;4978960;28;46210;-67
2022/01/12 09:24:01;;;;;;;;;59.75;47.25;;;;;5.42;65.79;103506.31;4978975;28;46173;-70
2022/01/12 09:26:27;;;;;;;;;64.00;48.50;;;;;5.54;65.78;103505.09;4979756;28;45424;-70
2022/01/12 09:28:52;;;;;;;;;70.75;53.75;;;;;5.84;65.51;103543.81;4980064;28;45251;-69
2022/01/12 09:31:18;;;;;;;;;69.50;51.00;;;;;5.92;65.00;103557.69;4962039;28;45593;-69
2022/01/12 09:33:44;;;;;;;;;71.50;52.00;;;;;5.95;64.59;103551.44;4979552;28;46151;-69
2022/01/12 09:36:09;;;;;;;;;69.00;52.25;;;;;6.09;64.62;103563.31;4979669;28;45195;-69
2022/01/12 09:38:35;;;;;;;;;60.50;50.25;;;;;6.10;64.05;103551.84;4971268;28;45521;-70
2022/01/12 09:41:02;;;;;;;;;70.25;51.25;;;;;6.06;63.76;103566.06;4998308;28;45532;-70
2022/01/12 09:43:32;;;;;;;;;69.25;53.00;;;;;6.18;64.54;103567.44;4982204;28;46413;-69
2022/01/12 09:45:57;;;;;;;;;75.25;55.25;;;;;6.20;63.58;103565.63;4978829;28;45381;-68
2022/01/12 09:48:25;;;;;;;;;67.50;53.75;;;;;6.09;63.43;103580.94;4979278;28;45466;-68
2022/01/12 09:50:58;;;;;;;;;71.25;53.00;;;;;5.96;64.30;103571.66;4962099;28;45573;-70
2022/01/12 09:53:23;;;;;;;;;62.25;49.25;;;;;6.00;64.19;103589.13;4961351;28;45992;-68
2022/01/12 09:55:49;;;;;;;;;72.00;54.25;;;;;6.03;64.51;103581.13;4979299;28;45381;-70
2022/01/12 09:58:15;;;;;;;;;66.75;53.00;;;;;6.02;64.17;103563.56;4979371;28;45777;-69
2022/01/12 10:00:40;;;;;;;;;75.00;58.00;;;;;5.94;64.33;103555.00;4961867;28;45472;-69
2022/01/12 10:03:11;;;;;;;;;72.75;56.25;;;;;6.24;64.22;103591.06;4957833;28;47168;-73
2022/01/12 10:05:38;;;;;;;;;77.50;56.50;;;;;6.24;63.67;103575.22;4978994;28;45422;-70
2022/01/12 10:08:11;;;;;;;;;70.50;54.75;;;;;6.38;63.55;103580.91;4968453;28;45530;-70
2022/01/12 10:10:37;;;;;;;;;73.75;55.25;;;;;6.18;63.13;103559.53;4976607;28;45362;-69
2022/01/12 10:13:03;;;;;;;;;72.75;54.50;;;;;6.26;63.39;103581.31;4979214;28;45315;-70
2022/01/12 10:15:29;;;;;;;;;75.00;56.50;;;;;6.06;63.57;103542.28;4961177;28;46403;-69
2022/01/12 10:18:01;;;;;;;;;71.50;55.25;;;;;6.27;63.31;103575.13;4975272;28;45493;-67
2022/01/12 10:20:26;;;;;;;;;70.00;53.00;;;;;6.26;63.71;103578.66;4976479;28;45403;-70
2022/01/12 10:22:59;;;;;;;;;77.00;55.75;;;;;6.47;62.88;103581.56;4960493;28;47479;-68
2022/01/12 10:25:27;;;;;;;;;72.75;55.75;;;;;6.51;63.33;103573.47;4957479;28;45948;-71
2022/01/12 10:27:53;;;;;;;;;76.25;58.50;;;;;6.62;63.15;103576.66;4959580;28;45225;-71
2022/01/12 10:30:28;;;;;;;;;74.50;57.75;;;;;6.58;62.38;103575.00;4962052;28;45392;-69
2022/01/12 10:33:08;;;;;;;;;74.75;56.75;;;;;6.61;62.56;103571.44;4971786;28;45671;-70
2022/01/12 10:35:37;;;;;;;;;73.75;53.75;;;;;6.67;62.39;103584.44;4964175;28;45585;-68
2022/01/12 10:38:09;;;;;;;;;73.75;56.00;;;;;6.69;62.82;103577.31;4981376;28;45525;-69
2022/01/12 10:40:44;;;;;;;;;69.75;54.75;;;;;6.65;62.62;103570.41;4986145;28;45426;-69
2022/01/12 10:43:35;;;;;;;;;75.75;55.75;;;;;6.71;61.90;103571.06;4961600;28;45616;-69
2022/01/12 10:46:17;;;;;;;;;71.75;57.75;;;;;6.55;61.95;103535.47;4978304;28;45350;-69
2022/01/12 10:48:46;;;;;;;;;77.00;57.00;;;;;6.83;61.89;103575.09;4960945;28;45550;-70
2022/01/12 10:51:20;;;;;;;;;76.75;56.00;;;;;6.82;61.22;103581.31;4982249;28;45629;-69
2022/01/12 10:53:46;;;;;;;;;73.00;55.00;;;;;6.77;62.02;103575.28;4955043;28;47918;-72
2022/01/12 10:56:15;;;;;;;;;72.00;54.50;;;;;6.52;61.39;103530.28;4972502;28;45485;-70
2022/01/12 10:58:43;;;;;;;;;76.25;56.75;;;;;6.48;61.66;103526.00;4972974;28;45362;-70
2022/01/12 11:01:11;;;;;;;;;76.50;56.50;;;;;6.72;61.58;103571.94;4973373;28;45442;-69
2022/01/12 11:03:37;;;;;;;;;74.25;57.25;;;;;6.68;61.14;103591.44;4972309;28;46696;-67
2022/01/12 11:06:04;;;;;;;;;70.50;53.25;;;;;6.31;61.58;103504.53;4954500;28;45425;-68
2022/01/12 11:08:30;;;;;;;;;72.25;54.75;;;;;6.80;61.86;103583.09;4973981;28;45552;-76
2022/01/12 11:10:57;;;;;;;;;70.50;54.00;;;;;6.68;61.26;103559.72;4981750;28;45423;-70
2022/01/12 11:13:25;;;;;;;;;71.75;55.25;;;;;6.65;61.63;103559.84;4974307;28;45802;-70
2022/01/12 11:15:51;;;;;;;;;72.25;56.25;;;;;6.33;60.95;103506.22;4969478;28;45466;-68
2022/01/12 11:18:21;;;;;;;;;75.25;57.75;;;;;6.58;60.72;103582.06;4974218;28;45456;-68
2022/01/12 11:20:49;;;;;;;;;65.75;49.50;;;;;6.57;61.95;103590.91;4977639;28;45688;-70
2022/01/12 11:23:18;;;;;;;;;71.75;55.00;;;;;6.55;60.96;103576.88;4997168;28;46698;-71
2022/01/12 11:25:50;;;;;;;;;73.75;55.75;;;;;6.73;61.96;103586.88;4987212;28;45772;-69
2022/01/12 11:28:21;;;;;;;;;68.25;52.50;;;;;6.63;61.21;103556.38;4978455;28;45419;-70
2022/01/12 11:30:55;;;;;;;;;74.25;56.00;;;;;6.83;61.09;103572.44;4978528;28;45361;-71
2022/01/12 11:33:33;;;;;;;;;73.75;55.75;;;;;6.88;60.74;103570.50;4960478;28;46581;-71
2022/01/12 11:36:04;;;;;;;;;71.75;54.75;;;;;6.90;61.27;103557.25;4978218;28;45604;-70
2022/01/12 11:38:35;;;;;;;;;75.50;56.25;;;;;6.81;60.74;103557.53;4989778;28;45404;-71
2022/01/12 11:41:28;;;;;;;;;78.25;58.00;;;;;6.87;61.46;103578.50;4998128;28;45191;-69
2022/01/12 11:44:03;;;;;;;;;72.75;57.50;;;;;6.91;61.45;103572.19;4997620;28;46300;-69
2022/01/12 11:46:47;;;;;;;;;72.50;55.75;;;;;7.03;61.10;103570.94;4979554;28;45508;-69
2022/01/12 11:49:31;;;;;;;;;68.75;54.00;;;;;7.18;60.95;103570.38;4998065;28;45385;-71
2022/01/12 11:52:00;;;;;;;;;75.75;57.75;;;;;7.25;60.46;103563.97;4997904;28;45374;-69
2022/01/12 11:54:33;;;;;;;;;70.25;54.75;;;;;7.18;60.67;103558.00;4998004;28;45435;-70
2022/01/12 11:57:07;;;;;;;;;74.75;58.25;;;;;7.28;59.94;103562.09;4979505;28;45497;-71
2022/01/12 11:59:54;;;;;;;;;75.25;55.75;;;;;7.35;59.97;103562.72;4994254;28;45266;-72
2022/01/12 12:02:38;;;;;;;;;77.00;60.25;;;;;6.57;59.45;103443.75;4964956;28;45645;-69
2022/01/12 12:05:11;;;;;;;;;67.00;51.25;;;;;7.21;60.17;103557.06;4959376;28;47714;-73
2022/01/12 12:08:22;;;;;;;;;75.75;56.75;;;;;7.32;59.72;103545.16;4977077;28;45635;-71
2022/01/12 12:10:53;;;;;;;;;69.75;53.50;;;;;7.38;59.18;103553.81;4897620;29;45310;-71
2022/01/12 12:13:20;;;;;;;;;73.75;57.00;;;;;7.32;58.77;103523.13;4969705;28;45473;-72
2022/01/12 12:15:46;;;;;;;;;71.25;52.25;;;;;7.07;58.35;103498.47;4965386;28;47147;-71
2022/01/12 12:18:12;;;;;;;;;70.50;55.00;;;;;7.03;58.85;103487.16;4997379;28;45243;-72
2022/01/12 12:20:38;;;;;;;;;74.50;54.75;;;;;7.32;58.70;103554.88;4966919;28;45343;-71
2022/01/12 12:23:03;;;;;;;;;69.50;53.75;;;;;6.98;58.71;103516.38;4960387;28;45207;-70
2022/01/12 12:25:32;;;;;;;;;71.75;54.25;;;;;7.24;58.78;103551.66;4977573;28;45585;-72
2022/01/12 12:28:00;;;;;;;;;67.25;52.00;;;;;7.40;59.24;103539.59;4975924;28;45425;-70
2022/01/12 12:30:28;;;;;;;;;65.75;52.25;;;;;7.46;58.51;103531.44;4975792;28;45402;-69
2022/01/12 12:32:56;;;;;;;;;65.00;52.00;;;;;7.59;58.34;103540.66;4978063;28;45422;-72
2022/01/12 12:35:25;;;;;;;;;67.00;52.00;;;;;7.69;57.57;103535.91;4960341;28;48535;-72
2022/01/12 12:38:01;;;;;;;;;66.50;52.00;;;;;7.64;58.23;103524.63;4977895;28;45384;-70